Time;durP1;ratioP1;P1;durP2;ratioP2;P2;SDS_P1;SDS_P2;PMS_P1;PMS_P2;Temp;Humidity;BMP_temperature;BMP_pressure;BME280_temperature;BME280_humidity;BME280_pressure;Samples;Min_cycle;Max_cycle;Signal;HPM_P1;HPM_P2
2022/05/04 00:00:42;;;;;;;53.70;12.50;;;;;;;9.00;53.59;99061.48;108915;1280;22443;-82
2022/05/04 00:03:09;;;;;;;49.70;13.20;;;;;;;8.91;53.62;99057.81;108989;1280;22791;-82
2022/05/04 00:05:36;;;;;;;56.30;12.30;;;;;;;8.93;53.71;99060.39;108980;1281;22538;-82
2022/05/04 00:08:05;;;;;;;52.20;13.30;;;;;;;8.93;53.86;99056.44;109221;1280;22385;-82
2022/05/04 00:10:55;;;;;;;40.10;12.30;;;;;;;8.90;53.90;99057.34;108755;1281;23179;-83
2022/05/04 00:13:22;;;;;;;57.20;12.80;;;;;;;8.87;53.94;99055.21;108802;1281;22411;-83
2022/05/04 00:15:49;;;;;;;33.90;11.80;;;;;;;8.81;53.88;99055.63;108936;1281;22414;-82
2022/05/04 00:18:16;;;;;;;39.40;13.80;;;;;;;8.74;53.93;99053.25;109098;1280;22166;-82
2022/05/04 00:20:43;;;;;;;45.40;12.70;;;;;;;8.70;54.34;99055.66;109216;1280;22420;-82
2022/05/04 00:23:10;;;;;;;37.90;12.00;;;;;;;8.66;54.46;99053.92;108783;1281;22506;-82
2022/05/04 00:25:43;;;;;;;30.90;11.90;;;;;;;8.61;54.40;99050.88;109103;1280;22546;-82
2022/05/04 00:28:30;;;;;;;38.10;13.60;;;;;;;8.55;54.59;99049.52;108950;1281;22443;-82
2022/05/04 00:30:57;;;;;;;28.90;11.80;;;;;;;8.56;54.74;99049.42;109007;1281;22326;-82
2022/05/04 00:33:55;;;;;;;;;;;;;;;;;;;;;
2022/05/04 00:36:22;;;;;;;38.40;13.80;;;;;;;8.56;55.06;99053.52;108840;1280;22524;-82
2022/05/04 00:38:49;;;;;;;45.50;13.40;;;;;;;8.51;54.94;99052.38;109012;1281;23119;-82
2022/05/04 00:41:16;;;;;;;41.20;13.80;;;;;;;8.56;54.95;99055.66;109051;1281;22654;-83
2022/05/04 00:43:51;;;;;;;43.20;13.00;;;;;;;8.50;54.70;99058.70;109075;1280;22418;-82
2022/05/04 00:46:22;;;;;;;46.70;12.80;;;;;;;8.42;54.84;99060.96;109007;1280;22501;-81
2022/05/04 00:48:55;;;;;;;62.70;12.40;;;;;;;8.38;55.09;99059.80;108996;1280;22506;-82
2022/05/04 00:51:27;;;;;;;47.10;13.00;;;;;;;8.44;55.00;99063.52;109239;1280;22924;-82
2022/05/04 00:54:00;;;;;;;41.00;12.60;;;;;;;8.46;54.90;99066.58;108982;1281;23054;-82
2022/05/04 00:56:31;;;;;;;37.00;12.40;;;;;;;8.46;54.93;99066.23;109198;1280;22603;-83
2022/05/04 00:59:01;;;;;;;39.20;12.20;;;;;;;8.40;54.75;99073.36;109223;1280;22548;-82
2022/05/04 01:01:30;;;;;;;27.30;12.30;;;;;;;8.30;55.00;99077.46;109149;1280;22432;-83
2022/05/04 01:03:59;;;;;;;27.40;12.20;;;;;;;8.20;55.06;99072.60;108994;1281;22352;-82
2022/05/04 01:06:27;;;;;;;28.70;13.90;;;;;;;8.16;55.39;99072.34;108747;1281;22409;-82
2022/05/04 01:08:55;;;;;;;34.80;15.30;;;;;;;8.09;55.33;99068.89;108813;1281;23178;-82
2022/05/04 01:11:22;;;;;;;29.40;14.30;;;;;;;8.07;55.56;99075.35;109023;1281;22475;-82
2022/05/04 01:13:59;;;;;;;29.90;15.00;;;;;;;8.05;55.60;99083.30;109016;1281;22426;-82
2022/05/04 01:16:28;;;;;;;31.00;14.70;;;;;;;8.02;55.85;99082.80;108975;1280;22531;-82
2022/05/04 01:19:13;;;;;;;;;;;;;;;;;;;;;
2022/05/04 01:21:42;;;;;;;29.80;13.80;;;;;;;7.89;55.95;99088.01;108817;1280;22469;-82
2022/05/04 01:24:17;;;;;;;28.30;12.60;;;;;;;7.86;55.93;99094.54;109205;1281;23292;-81
2022/05/04 01:26:47;;;;;;;27.50;12.50;;;;;;;7.84;56.21;99093.41;108799;1281;22524;-81
2022/05/04 01:29:14;;;;;;;23.80;12.20;;;;;;;7.82;56.00;99089.99;108773;1281;22450;-81
2022/05/04 01:31:43;;;;;;;26.20;11.40;;;;;;;7.79;56.03;99093.00;108725;1281;22491;-82
2022/05/04 01:34:10;;;;;;;20.10;11.00;;;;;;;7.76;55.98;99092.67;109208;1279;22490;-82
2022/05/04 01:36:37;;;;;;;18.60;10.80;;;;;;;7.73;55.95;99091.27;109197;1280;22379;-82
2022/05/04 01:39:07;;;;;;;20.90;10.30;;;;;;;7.75;56.12;99090.27;109031;1280;22392;-82
2022/05/04 01:44:22;;;;;;;17.80;9.60;;;;;;;7.76;55.90;99095.86;108973;1280;23188;-81
2022/05/04 01:46:48;;;;;;;21.20;10.60;;;;;;;7.69;55.99;99098.39;108897;1280;22512;-82
2022/05/04 01:49:15;;;;;;;19.40;11.00;;;;;;;7.63;56.22;99095.23;108794;1281;22578;-82
2022/05/04 01:51:45;;;;;;;23.30;12.20;;;;;;;7.56;56.24;99092.08;108788;1281;23160;-82
2022/05/04 01:54:12;;;;;;;22.60;12.50;;;;;;;7.51;56.42;99090.64;109176;1279;23129;-82
2022/05/04 01:56:39;;;;;;;19.80;10.60;;;;;;;7.49;56.32;99091.30;109107;1280;22831;-83
2022/05/04 01:59:06;;;;;;;19.80;10.40;;;;;;;7.45;56.48;99092.23;108651;1279;22518;-82
2022/05/04 02:01:33;;;;;;;24.30;10.70;;;;;;;7.38;56.41;99088.55;108768;1281;23111;-82
2022/05/04 02:04:02;;;;;;;18.00;9.30;;;;;;;7.38;56.37;99086.64;108753;1281;22460;-83
2022/05/04 02:06:32;;;;;;;15.20;8.40;;;;;;;7.47;56.61;99090.15;108532;1281;23046;-82
2022/05/04 02:08:59;;;;;;;19.70;9.10;;;;;;;7.55;56.53;99091.98;108734;1281;22245;-82
2022/05/04 02:11:35;;;;;;;15.80;8.90;;;;;;;7.61;56.47;99102.95;108698;1281;23295;-81
2022/05/04 02:14:03;;;;;;;16.50;9.70;;;;;;;7.58;56.26;99103.83;108824;1280;22216;-81
2022/05/04 02:16:31;;;;;;;16.50;9.20;;;;;;;7.53;56.52;99103.05;108757;1280;22408;-82
2022/05/04 02:18:58;;;;;;;16.00;8.70;;;;;;;7.46;56.39;99101.38;108850;1280;22500;-82
2022/05/04 02:21:26;;;;;;;14.50;7.70;;;;;;;7.43;56.41;99104.73;108758;1281;22496;-82
2022/05/04 02:23:53;;;;;;;15.90;7.50;;;;;;;7.42;56.47;99103.20;109010;1280;22510;-82
2022/05/04 02:26:20;;;;;;;15.10;8.30;;;;;;;7.39;56.75;99102.89;108756;1281;22486;-83
2022/05/04 02:28:47;;;;;;;15.00;7.50;;;;;;;7.33;56.46;99098.98;109183;1279;22551;-82
2022/05/04 02:31:14;;;;;;;14.60;7.70;;;;;;;7.28;56.54;99102.77;108749;1281;22380;-82
2022/05/04 02:33:42;;;;;;;15.30;7.80;;;;;;;7.25;56.74;99098.54;108751;1281;22380;-82
2022/05/04 02:38:55;;;;;;;14.30;7.90;;;;;;;7.22;56.89;99105.77;109183;1280;22398;-82
2022/05/04 02:41:22;;;;;;;14.10;7.30;;;;;;;7.20;56.94;99104.69;109141;1280;22465;-82
2022/05/04 02:43:49;;;;;;;17.10;7.00;;;;;;;7.21;56.74;99108.50;108985;1281;22357;-83
2022/05/04 02:46:20;;;;;;;14.60;7.50;;;;;;;7.22;56.67;99112.50;108997;1279;22615;-82
2022/05/04 02:48:47;;;;;;;18.70;8.80;;;;;;;7.22;56.83;99116.72;109012;1281;23208;-82
2022/05/04 02:51:17;;;;;;;22.80;8.80;;;;;;;7.20;57.03;99113.36;109199;1280;22586;-82
2022/05/04 02:53:44;;;;;;;21.60;9.50;;;;;;;7.23;57.22;99113.53;108779;1281;23036;-83
2022/05/04 02:56:13;;;;;;;20.20;11.20;;;;;;;7.28;57.34;99119.95;108993;1280;22445;-82
2022/05/04 02:58:40;;;;;;;26.60;10.50;;;;;;;7.30;57.25;99109.41;109186;1280;22419;-83
2022/05/04 03:04:07;;;;;;;20.00;10.30;;;;;;;7.44;57.15;99113.55;108809;1281;22378;-82
2022/05/04 03:06:36;;;;;;;23.40;9.40;;;;;;;7.53;57.34;99115.31;108822;1281;22258;-82
2022/05/04 03:09:04;;;;;;;17.70;9.10;;;;;;;7.57;57.26;99114.20;108809;1281;23221;-82
2022/05/04 03:14:18;;;;;;;19.30;9.80;;;;;;;7.72;57.68;99109.23;109202;1280;23258;-82
2022/05/04 03:16:53;;;;;;;16.90;9.30;;;;;;;7.79;57.59;99117.10;108778;1281;22350;-83
2022/05/04 03:19:22;;;;;;;23.10;10.70;;;;;;;7.81;57.40;99112.75;108735;1280;22694;-83
2022/05/04 03:21:51;;;;;;;19.70;11.10;;;;;;;7.83;57.71;99115.28;109029;1279;22979;-82
2022/05/04 03:24:19;;;;;;;19.20;9.70;;;;;;;7.84;57.86;99115.95;108729;1281;22523;-82
2022/05/04 03:26:46;;;;;;;18.30;9.70;;;;;;;7.76;57.62;99118.90;109024;1281;22401;-82
2022/05/04 03:29:15;;;;;;;17.10;9.50;;;;;;;7.70;57.87;99116.60;109006;1281;22411;-82
2022/05/04 03:31:43;;;;;;;20.70;9.50;;;;;;;7.75;57.94;99122.67;108678;1281;22491;-83
2022/05/04 03:34:10;;;;;;;17.80;9.00;;;;;;;7.76;57.94;99127.40;108725;1281;22556;-82
2022/05/04 03:36:37;;;;;;;17.20;8.60;;;;;;;7.75;57.91;99119.70;108734;1281;22616;-83
2022/05/04 03:39:08;;;;;;;18.20;9.20;;;;;;;7.74;57.77;99124.71;109013;1281;22504;-82
2022/05/04 03:41:34;;;;;;;17.00;8.60;;;;;;;7.76;57.97;99126.88;108762;1281;22369;-82
2022/05/04 03:44:02;;;;;;;20.40;9.50;;;;;;;7.74;58.03;99116.54;109200;1280;22964;-82
2022/05/04 03:46:40;;;;;;;22.40;8.40;;;;;;;7.72;58.03;99124.27;108995;1281;22182;-82
2022/05/04 03:49:08;;;;;;;19.40;8.30;;;;;;;7.71;58.16;99129.29;109199;1280;22414;-83
2022/05/04 03:51:35;;;;;;;20.10;9.40;;;;;;;7.73;58.05;99132.94;109197;1280;22569;-82
2022/05/04 03:54:02;;;;;;;17.90;8.50;;;;;;;7.74;58.06;99128.23;109043;1281;22442;-82
2022/05/04 03:56:30;;;;;;;17.80;8.20;;;;;;;7.77;58.07;99131.95;109022;1280;22545;-83
2022/05/04 03:58:57;;;;;;;20.00;8.20;;;;;;;7.81;58.15;99133.84;108784;1281;22186;-82
2022/05/04 04:01:26;;;;;;;16.10;8.50;;;;;;;7.82;58.32;99141.02;108783;1281;22534;-82
2022/05/04 04:03:53;;;;;;;18.70;7.90;;;;;;;7.88;58.27;99134.13;109211;1280;22440;-83
2022/05/04 04:06:20;;;;;;;19.00;8.90;;;;;;;7.94;58.27;99135.58;108759;1280;22400;-83
2022/05/04 04:08:51;;;;;;;21.50;8.70;;;;;;;8.01;58.35;99135.67;109018;1281;23096;-82
2022/05/04 04:11:19;;;;;;;17.80;8.70;;;;;;;8.04;58.34;99140.09;109058;1279;22937;-82
2022/05/04 04:13:47;;;;;;;21.80;9.00;;;;;;;7.94;58.27;99135.04;109036;1281;22438;-83
2022/05/04 04:16:14;;;;;;;21.90;8.70;;;;;;;7.94;58.37;99140.36;108734;1281;22800;-83
2022/05/04 04:18:41;;;;;;;19.40;8.60;;;;;;;7.98;58.47;99138.35;109196;1279;22453;-83
2022/05/04 04:23:56;;;;;;;21.10;7.90;;;;;;;8.22;58.00;99141.64;108809;1280;22491;-82
2022/05/04 04:26:24;;;;;;;16.80;8.20;;;;;;;8.32;58.22;99147.03;109017;1281;22488;-83
2022/05/04 04:28:58;;;;;;;27.40;8.40;;;;;;;8.55;58.32;99143.75;109065;1280;23200;-82
2022/05/04 04:31:41;;;;;;;29.40;8.70;;;;;;;8.88;58.17;99148.04;109032;1280;22397;-82
2022/05/04 04:34:08;;;;;;;23.80;8.10;;;;;;;9.00;58.18;99147.98;109010;1281;22498;-83
2022/05/04 04:36:46;;;;;;;22.20;8.90;;;;;;;9.16;58.44;99152.27;108811;1280;22366;-82
2022/05/04 04:39:13;;;;;;;19.10;8.60;;;;;;;9.33;58.12;99150.05;108798;1280;22436;-83
2022/05/04 04:41:40;;;;;;;21.30;7.90;;;;;;;9.57;58.08;99152.77;109200;1279;22463;-83
2022/05/04 04:44:07;;;;;;;25.50;8.10;;;;;;;9.84;57.80;99155.23;109011;1281;23081;-83
2022/05/04 04:46:37;;;;;;;24.60;7.80;;;;;;;10.18;57.98;99150.05;108712;1281;22408;-83
2022/05/04 04:49:04;;;;;;;17.90;7.70;;;;;;;10.51;57.94;99147.80;108999;1280;22484;-82
2022/05/04 04:51:31;;;;;;;19.00;7.50;;;;;;;10.76;57.79;99146.69;108789;1281;22279;-83
2022/05/04 04:54:01;;;;;;;17.50;7.00;;;;;;;11.03;57.78;99147.95;108702;1281;22594;-83
2022/05/04 04:56:28;;;;;;;15.70;6.50;;;;;;;11.26;57.66;99149.98;108994;1281;22367;-83
2022/05/04 04:58:55;;;;;;;18.70;7.10;;;;;;;11.47;57.63;99151.66;109233;1281;23096;-83
2022/05/04 05:01:22;;;;;;;20.40;6.90;;;;;;;11.66;57.48;99151.90;108838;1281;23143;-83
2022/05/04 05:03:50;;;;;;;24.10;9.60;;;;;;;11.80;57.43;99150.31;108672;1281;22419;-83
2022/05/04 05:06:19;;;;;;;23.30;10.20;;;;;;;11.92;57.35;99143.31;108723;1281;23222;-83
2022/05/04 05:09:03;;;;;;;30.60;12.30;;;;;;;12.05;57.20;99138.59;109234;1280;22453;-83
2022/05/04 05:11:30;;;;;;;33.90;12.40;;;;;;;12.23;56.93;99142.60;108973;1281;22568;-84
2022/05/04 05:17:10;;;;;;;26.80;9.60;;;;;;;12.50;56.85;99143.88;109214;1279;22444;-83
2022/05/04 05:19:37;;;;;;;30.00;9.50;;;;;;;12.60;56.85;99139.80;108750;1281;22433;-83
2022/05/04 05:22:04;;;;;;;27.20;8.70;;;;;;;12.78;56.89;99142.29;108815;1281;22383;-83
2022/05/04 05:24:34;;;;;;;24.60;8.00;;;;;;;13.06;56.83;99142.60;108910;1281;22519;-84
2022/05/04 05:27:01;;;;;;;24.60;7.10;;;;;;;13.34;56.49;99138.55;108675;1281;22429;-83
2022/05/04 05:29:28;;;;;;;23.50;8.10;;;;;;;13.62;56.19;99145.14;108989;1281;23166;-82
2022/05/04 05:31:55;;;;;;;20.30;7.70;;;;;;;13.81;56.20;99144.23;108823;1281;22457;-82
2022/05/04 05:34:22;;;;;;;20.20;7.60;;;;;;;13.98;56.05;99145.86;108785;1281;22509;-83
2022/05/04 05:36:50;;;;;;;22.80;8.50;;;;;;;14.15;55.95;99143.13;108614;1281;22479;-82
2022/05/04 05:39:17;;;;;;;27.60;13.30;;;;;;;14.30;55.79;99141.30;108979;1281;22530;-82
2022/05/04 05:41:43;;;;;;;42.40;20.20;;;;;;;14.39;55.71;99144.67;109234;1280;22586;-82
2022/05/04 05:44:10;;;;;;;46.20;16.40;;;;;;;14.56;55.54;99144.80;108676;1281;22594;-82
2022/05/04 05:46:37;;;;;;;36.30;11.90;;;;;;;14.73;55.51;99137.09;108955;1281;22576;-82
2022/05/04 05:49:04;;;;;;;17.90;6.20;;;;;;;14.93;55.24;99141.56;108711;1281;23126;-82
2022/05/04 05:51:30;;;;;;;12.80;5.00;;;;;;;14.97;54.77;99133.70;108983;1281;22474;-83
2022/05/04 05:53:58;;;;;;;13.00;5.40;;;;;;;14.77;54.40;99134.95;108903;1281;22512;-84
2022/05/04 05:56:25;;;;;;;12.60;4.90;;;;;;;14.58;54.72;99143.56;109203;1279;22537;-82
2022/05/04 05:58:52;;;;;;;14.20;5.30;;;;;;;14.54;54.94;99143.60;108730;1281;22390;-82
2022/05/04 06:01:19;;;;;;;13.90;5.60;;;;;;;14.72;54.77;99131.99;109079;1280;22483;-83
2022/05/04 06:03:46;;;;;;;13.10;5.90;;;;;;;14.94;54.47;99137.02;108908;1280;22488;-83
2022/05/04 06:06:16;;;;;;;16.10;6.00;;;;;;;15.14;54.45;99135.54;109013;1281;22417;-83
2022/05/04 06:08:42;;;;;;;13.30;5.30;;;;;;;15.31;54.21;99142.09;108906;1281;22495;-84
2022/05/04 06:11:10;;;;;;;11.20;5.50;;;;;;;15.42;54.53;99137.88;108750;1280;23118;-82
2022/05/04 06:13:39;;;;;;;15.80;6.10;;;;;;;15.61;54.27;99145.13;108954;1281;22411;-82
2022/05/04 06:16:12;;;;;;;15.20;5.90;;;;;;;15.78;54.39;99144.50;108713;1281;22602;-83
2022/05/04 06:18:39;;;;;;;13.90;5.70;;;;;;;15.97;54.29;99144.20;108731;1281;22585;-83
2022/05/04 06:21:06;;;;;;;15.00;5.70;;;;;;;16.05;54.28;99144.67;108863;1281;23016;-83
2022/05/04 06:23:36;;;;;;;19.50;5.50;;;;;;;16.30;54.58;99145.20;108692;1281;23249;-84
2022/05/04 06:26:03;;;;;;;14.20;5.30;;;;;;;16.58;54.65;99150.59;108781;1281;22944;-83
2022/05/04 06:28:29;;;;;;;17.20;5.80;;;;;;;16.88;54.63;99148.83;108612;1281;22448;-84
2022/05/04 06:36:27;;;;;;;16.60;6.50;;;;;;;17.41;53.23;99144.70;109052;1281;22441;-83
2022/05/04 06:38:54;;;;;;;17.00;7.10;;;;;;;17.48;53.81;99142.95;109009;1279;22879;-83
2022/05/04 06:41:21;;;;;;;21.90;7.50;;;;;;;17.65;53.68;99150.01;108760;1281;22476;-83
2022/05/04 06:43:48;;;;;;;22.80;8.20;;;;;;;17.75;53.55;99154.98;108770;1281;22404;-82
2022/05/04 06:46:24;;;;;;;20.60;7.10;;;;;;;17.90;53.61;99152.11;108987;1281;22459;-84
2022/05/04 06:48:51;;;;;;;21.00;7.70;;;;;;;18.05;53.44;99156.27;108824;1281;22464;-84
2022/05/04 06:51:18;;;;;;;21.00;6.90;;;;;;;18.05;53.06;99154.27;108604;1281;22603;-81
2022/05/04 06:53:45;;;;;;;19.40;7.40;;;;;;;18.06;52.63;99155.09;108764;1281;22445;-83
2022/05/04 06:56:12;;;;;;;18.60;7.20;;;;;;;17.67;52.10;99149.19;108771;1280;22584;-83
2022/05/04 06:58:40;;;;;;;21.10;7.40;;;;;;;17.58;53.02;99155.73;108642;1282;23403;-83
2022/05/04 07:01:10;;;;;;;26.40;7.20;;;;;;;17.90;53.33;99155.32;108829;1281;22508;-84
2022/05/04 07:03:38;;;;;;;21.20;7.20;;;;;;;18.17;53.28;99149.54;108974;1281;23058;-82
2022/05/04 07:06:06;;;;;;;20.20;7.40;;;;;;;18.54;52.88;99148.05;108771;1281;23199;-83
2022/05/04 07:08:36;;;;;;;20.80;6.80;;;;;;;18.90;53.15;99144.82;108743;1281;23183;-84
2022/05/04 07:11:03;;;;;;;27.50;7.70;;;;;;;19.21;52.97;99142.64;108762;1281;22370;-83
2022/05/04 07:13:30;;;;;;;25.60;6.70;;;;;;;19.52;52.97;99145.66;108738;1281;22330;-83
2022/05/04 07:15:57;;;;;;;23.50;7.10;;;;;;;19.79;52.58;99146.90;108939;1281;22376;-83
2022/05/04 07:18:24;;;;;;;20.20;6.70;;;;;;;19.96;52.59;99148.79;108758;1281;22441;-84
2022/05/04 07:20:54;;;;;;;24.00;6.90;;;;;;;20.15;52.05;99153.88;108888;1281;22543;-83
2022/05/04 07:23:23;;;;;;;25.40;7.00;;;;;;;20.18;51.66;99151.45;108760;1281;22453;-83
2022/05/04 07:25:50;;;;;;;23.80;6.80;;;;;;;20.11;51.70;99149.10;108746;1281;22370;-82
2022/05/04 07:28:22;;;;;;;27.00;7.20;;;;;;;19.75;50.62;99151.60;108750;1280;22476;-83
2022/05/04 07:30:49;;;;;;;23.70;7.10;;;;;;;19.51;51.54;99151.46;109086;1280;22479;-83
2022/05/04 07:33:16;;;;;;;27.50;7.10;;;;;;;19.81;51.81;99150.64;108901;1281;22344;-83
2022/05/04 07:35:43;;;;;;;28.50;6.60;;;;;;;20.18;52.13;99157.50;108681;1281;22178;-82
2022/05/04 07:38:10;;;;;;;27.30;6.80;;;;;;;20.52;51.69;99151.61;108766;1281;22346;-82
2022/05/04 07:43:24;;;;;;;31.30;6.40;;;;;;;20.91;51.17;99156.95;108716;1281;22492;-83
2022/05/04 07:45:51;;;;;;;20.90;6.10;;;;;;;21.01;51.27;99149.88;108891;1281;22538;-83
2022/05/04 07:48:18;;;;;;;20.70;5.90;;;;;;;21.15;50.74;99159.62;108939;1281;22518;-85
2022/05/04 07:50:45;;;;;;;22.40;5.90;;;;;;;21.11;50.75;99157.24;108863;1282;22411;-83
2022/05/04 07:53:12;;;;;;;15.60;4.90;;;;;;;21.18;50.92;99161.15;108669;1283;22532;-86
2022/05/04 07:55:39;;;;;;;16.60;5.30;;;;;;;21.28;50.79;99156.56;108650;1284;22447;-84
2022/05/04 07:58:06;;;;;;;15.90;4.50;;;;;;;21.55;50.52;99157.57;108608;1284;22815;-83
2022/05/04 08:06:04;;;;;;;18.20;5.40;;;;;;;21.88;49.57;99165.02;109008;1281;22358;-83
2022/05/04 08:08:31;;;;;;;14.70;4.80;;;;;;;21.86;49.21;99176.48;108755;1281;22553;-83
2022/05/04 08:11:02;;;;;;;14.80;4.80;;;;;;;21.60;49.22;99165.51;108928;1280;22610;-83
2022/05/04 08:13:29;;;;;;;19.40;5.10;;;;;;;21.71;49.29;99172.84;108881;1281;22426;-85
2022/05/04 08:16:01;;;;;;;18.30;5.20;;;;;;;21.78;49.39;99170.72;108681;1280;23246;-85
2022/05/04 08:18:28;;;;;;;14.10;4.80;;;;;;;21.96;49.37;99179.03;108951;1281;23199;-82
2022/05/04 08:20:55;;;;;;;18.20;4.60;;;;;;;22.07;48.96;99177.95;108960;1281;23093;-83
2022/05/04 08:23:23;;;;;;;19.20;5.00;;;;;;;21.97;48.70;99179.36;109201;1280;22353;-85
2022/05/04 08:25:50;;;;;;;17.50;5.10;;;;;;;22.05;48.94;99178.55;108803;1281;22873;-85
2022/05/04 08:28:21;;;;;;;14.40;4.90;;;;;;;22.15;49.02;99182.98;108959;1281;23026;-84
2022/05/04 08:30:48;;;;;;;16.60;5.00;;;;;;;22.24;48.85;99183.65;108987;1281;22433;-83
2022/05/04 08:33:16;;;;;;;13.30;4.80;;;;;;;22.31;48.73;99180.36;109257;1279;22438;-82
2022/05/04 08:35:46;;;;;;;12.90;4.60;;;;;;;22.12;47.84;99184.85;109012;1281;22480;-84
2022/05/04 08:38:13;;;;;;;23.30;6.50;;;;;;;21.75;47.38;99178.27;108979;1281;22418;-83
2022/05/04 08:40:43;;;;;;;18.40;6.30;;;;;;;21.38;47.81;99181.88;109269;1280;22324;-83
2022/05/04 08:43:11;;;;;;;16.10;5.00;;;;;;;21.22;47.50;99183.00;108971;1281;22478;-83
2022/05/04 08:45:40;;;;;;;10.10;4.40;;;;;;;21.23;48.46;99188.05;109230;1280;22336;-83
2022/05/04 08:48:31;;;;;;;13.70;5.20;;;;;;;21.41;48.16;99187.73;108968;1281;22533;-83
2022/05/04 08:51:08;;;;;;;11.40;5.00;;;;;;;21.58;48.25;99180.38;109232;1280;22378;-83
2022/05/04 08:53:37;;;;;;;9.90;4.20;;;;;;;21.74;48.06;99189.14;109239;1281;22536;-83
2022/05/04 08:56:07;;;;;;;11.70;5.50;;;;;;;21.74;47.62;99183.24;109246;1280;22303;-82
2022/05/04 08:58:37;;;;;;;14.80;5.30;;;;;;;21.70;47.92;99181.23;109244;1280;22191;-84
2022/05/04 09:01:09;;;;;;;16.90;5.70;;;;;;;21.85;47.76;99180.49;108992;1281;22385;-82
2022/05/04 09:03:39;;;;;;;13.30;5.20;;;;;;;21.99;47.81;99184.48;108981;1280;22457;-83
2022/05/04 09:06:07;;;;;;;14.40;5.50;;;;;;;22.06;47.34;99180.59;108768;1281;23036;-82
2022/05/04 09:08:58;;;;;;;12.80;5.20;;;;;;;22.13;47.40;99180.95;108768;1281;22404;-82
2022/05/04 09:11:27;;;;;;;15.60;5.60;;;;;;;22.02;46.61;99183.45;109237;1280;22482;-82
2022/05/04 09:14:12;;;;;;;14.50;5.70;;;;;;;21.79;46.95;99173.81;109258;1281;22198;-83
2022/05/04 09:16:40;;;;;;;9.70;4.70;;;;;;;21.94;47.11;99178.13;108960;1281;22220;-82
2022/05/04 09:19:13;;;;;;;10.30;5.40;;;;;;;22.09;47.21;99173.92;109008;1281;22399;-83
2022/05/04 09:21:41;;;;;;;11.60;4.90;;;;;;;22.19;46.85;99172.48;108813;1281;22414;-85
2022/05/04 09:24:09;;;;;;;11.30;5.00;;;;;;;22.41;47.07;99177.38;108765;1281;22532;-83
2022/05/04 09:26:48;;;;;;;14.80;5.70;;;;;;;22.57;46.81;99172.21;108973;1281;22412;-83
2022/05/04 09:29:37;;;;;;;9.70;4.40;;;;;;;22.57;46.03;99171.97;108855;1281;22394;-86
2022/05/04 09:32:15;;;;;;;13.20;4.70;;;;;;;22.56;46.44;99166.46;108942;1281;22411;-87
2022/05/04 09:34:44;;;;;;;8.60;4.40;;;;;;;22.71;46.27;99165.10;108709;1280;22173;-83
2022/05/04 09:45:55;;;;;;;8.70;4.00;;;;;;;22.14;45.58;99178.80;108253;1281;22530;-84
2022/05/04 09:48:30;;;;;;;11.50;4.10;;;;;;;22.18;45.32;99169.80;108931;1281;22528;-84
2022/05/04 09:51:05;;;;;;;13.30;4.30;;;;;;;22.40;45.77;99170.39;108957;1281;22420;-84
2022/05/04 09:53:40;;;;;;;14.40;4.70;;;;;;;22.65;45.73;99165.77;108977;1281;22939;-84
2022/05/04 09:56:09;;;;;;;10.00;4.00;;;;;;;22.87;45.29;99163.95;108978;1281;22574;-83
2022/05/04 09:58:37;;;;;;;6.90;3.20;;;;;;;22.82;44.55;99170.30;108856;1279;23206;-84
2022/05/04 10:01:06;;;;;;;11.20;3.90;;;;;;;22.56;43.80;99162.34;108668;1281;23062;-83
2022/05/04 10:03:34;;;;;;;8.90;4.40;;;;;;;22.11;44.19;99168.20;108986;1280;22403;-85
2022/05/04 10:06:02;;;;;;;12.50;4.80;;;;;;;22.17;44.65;99164.80;108871;1281;22385;-84
2022/05/04 10:08:28;;;;;;;10.00;3.70;;;;;;;22.25;44.71;99157.83;108976;1281;22510;-83
2022/05/04 10:10:55;;;;;;;8.40;3.50;;;;;;;22.27;44.14;99163.29;108951;1281;22475;-81
2022/05/04 10:13:23;;;;;;;10.00;3.60;;;;;;;22.24;44.59;99159.67;108981;1279;23390;-83
2022/05/04 10:15:57;;;;;;;20.00;6.80;;;;;;;22.39;44.63;99156.59;108979;1281;22376;-82
2022/05/04 10:18:28;;;;;;;10.70;3.90;;;;;;;22.55;44.26;99152.34;109255;1280;22456;-82
2022/05/04 10:21:12;;;;;;;47.90;16.80;;;;;;;22.47;43.83;99154.84;108851;1281;22392;-86
2022/05/04 10:23:47;;;;;;;12.30;5.00;;;;;;;22.53;44.18;99156.52;108995;1281;22373;-86
2022/05/04 10:26:17;;;;;;;10.30;4.00;;;;;;;22.59;43.94;99149.67;108968;1281;22165;-81
2022/05/04 10:31:34;;;;;;;18.00;7.30;;;;;;;22.63;43.21;99151.66;109261;1281;22455;-84
2022/05/04 10:34:07;;;;;;;10.70;3.50;;;;;;;22.58;43.74;99146.14;108848;1281;22378;-83
2022/05/04 10:36:34;;;;;;;11.70;3.60;;;;;;;22.54;43.63;99146.83;108972;1281;22681;-82
2022/05/04 10:39:06;;;;;;;11.70;4.00;;;;;;;22.48;43.78;99153.89;108944;1281;22931;-82
2022/05/04 10:41:35;;;;;;;15.60;3.30;;;;;;;22.43;43.40;99142.14;109264;1279;22384;-83
2022/05/04 10:44:03;;;;;;;10.10;3.20;;;;;;;22.30;43.33;99139.34;108969;1281;22536;-83
2022/05/04 10:46:32;;;;;;;10.80;3.80;;;;;;;22.39;43.12;99133.91;109236;1280;22542;-83
2022/05/04 10:49:04;;;;;;;9.70;4.40;;;;;;;22.59;43.26;99139.95;108895;1281;22558;-83
2022/05/04 10:51:37;;;;;;;9.70;3.40;;;;;;;22.80;43.15;99136.42;108979;1281;22466;-82
2022/05/04 10:54:13;;;;;;;6.60;2.90;;;;;;;22.97;42.90;99129.08;109238;1280;22375;-82
2022/05/04 10:56:46;;;;;;;8.10;2.80;;;;;;;23.03;42.28;99131.01;109050;1280;22557;-83
2022/05/04 10:59:33;;;;;;;8.00;3.50;;;;;;;23.07;42.37;99122.56;108971;1280;22462;-83
2022/05/04 11:02:05;;;;;;;16.20;3.70;;;;;;;23.01;41.30;99124.36;108707;1280;22420;-83
2022/05/04 11:04:58;;;;;;;11.80;3.60;;;;;;;22.76;41.84;99125.27;109035;1281;22439;-81
2022/05/04 11:07:29;;;;;;;10.20;3.40;;;;;;;22.95;41.63;99130.94;108982;1281;22554;-83
2022/05/04 11:10:03;;;;;;;11.60;3.10;;;;;;;22.55;40.65;99137.25;109038;1279;22486;-82
2022/05/04 11:16:20;;;;;;;7.50;3.00;;;;;;;22.49;41.73;99132.60;109221;1280;23103;-84
2022/05/04 11:19:07;;;;;;;10.70;3.20;;;;;;;22.62;41.49;99125.81;108708;1281;23209;-85
2022/05/04 11:21:59;;;;;;;10.10;2.90;;;;;;;22.86;42.10;99121.61;109182;1280;22533;-84
2022/05/04 11:24:30;;;;;;;7.80;3.00;;;;;;;23.24;41.58;99120.46;108796;1281;22630;-83
2022/05/04 11:27:19;;;;;;;9.10;2.70;;;;;;;23.36;41.09;99118.49;108926;1281;22514;-83
2022/05/04 11:30:13;;;;;;;10.40;3.10;;;;;;;23.20;40.21;99118.77;109166;1280;22680;-83
2022/05/04 11:32:40;;;;;;;7.70;2.80;;;;;;;23.12;41.32;99112.19;108923;1281;22468;-84
2022/05/04 11:35:22;;;;;;;10.60;3.50;;;;;;;23.39;41.46;99112.36;109170;1280;22551;-83
2022/05/04 11:37:56;;;;;;;8.60;2.50;;;;;;;23.51;40.36;99106.63;108831;1281;23212;-84
2022/05/04 11:40:24;;;;;;;8.60;2.50;;;;;;;23.19;39.94;99107.05;103571;1281;7056167;-83
2022/05/04 11:42:52;;;;;;;11.60;3.20;;;;;;;23.12;40.83;99107.36;108849;1281;22441;-84
2022/05/04 11:45:26;;;;;;;7.00;2.90;;;;;;;23.07;41.14;99105.80;109175;1280;22506;-84
2022/05/04 11:47:54;;;;;;;11.40;2.70;;;;;;;23.35;41.00;99100.48;109134;1279;22486;-84
2022/05/04 11:50:34;;;;;;;9.20;2.30;;;;;;;23.65;40.72;99104.05;108838;1281;22505;-84
2022/05/04 11:53:01;;;;;;;11.40;3.00;;;;;;;23.80;40.14;99108.19;108785;1280;23054;-86
2022/05/04 11:55:55;;;;;;;;;;;;;;;;;;;;;
2022/05/04 11:58:42;;;;;;;7.20;2.30;;;;;;;23.63;38.91;99102.46;109004;1280;22538;-84
2022/05/04 12:01:25;;;;;;;9.10;3.80;;;;;;;23.42;38.86;99098.43;108763;1281;22565;-84
2022/05/04 12:03:56;;;;;;;8.10;2.90;;;;;;;23.15;38.99;99102.96;108900;1280;22453;-86
2022/05/04 12:06:24;;;;;;;7.50;2.70;;;;;;;23.03;39.05;99096.31;108858;1281;23146;-83
2022/05/04 12:08:54;;;;;;;7.50;2.80;;;;;;;23.11;39.56;99095.85;108856;1281;23337;-83
2022/05/04 12:11:30;;;;;;;9.20;3.10;;;;;;;23.20;38.91;99098.45;109180;1280;22403;-83
2022/05/04 12:13:59;;;;;;;7.10;3.10;;;;;;;23.02;38.21;99096.13;108792;1281;22403;-84
2022/05/04 12:16:53;;;;;;;7.10;2.40;;;;;;;22.81;38.69;99103.23;108842;1280;21969;-85
2022/05/04 12:19:20;;;;;;;7.10;2.60;;;;;;;22.95;39.30;99096.33;108880;1281;23122;-83
2022/05/04 12:25:06;;;;;;;9.20;2.30;;;;;;;23.26;38.63;99089.35;109162;1281;22411;-85
2022/05/04 12:28:45;;;;;;;;;;;;;;;;;;;;;